Time;durP1;ratioP1;P1;durP2;ratioP2;P2;SDS_P1;SDS_P2;PMS_P1;PMS_P2;Temp;Humidity;BMP_temperature;BMP_pressure;BME280_temperature;BME280_humidity;BME280_pressure;Samples;Min_cycle;Max_cycle;Signal;HPM_P1;HPM_P2
2023/05/11 00:00:13;;;;;;;2.15;1.45;;;;;;;13.23;100.00;100421.03;8291070;28;20069;-56
2023/05/11 00:04:13;;;;;;;3.63;1.63;;;;;;;13.20;100.00;100424.06;8291002;28;20038;-56
2023/05/11 00:08:15;;;;;;;3.45;1.05;;;;;;;13.10;100.00;100426.91;8290193;28;20045;-56
2023/05/11 00:12:15;;;;;;;3.38;1.60;;;;;;;13.21;100.00;100417.66;8290558;28;20052;-57
2023/05/11 00:16:16;;;;;;;3.70;1.48;;;;;;;13.18;100.00;100407.09;8277479;28;20352;-56
2023/05/11 00:20:17;;;;;;;3.83;1.40;;;;;;;13.12;100.00;100413.16;8288549;28;20034;-57
2023/05/11 00:24:17;;;;;;;1.55;1.33;;;;;;;13.06;100.00;100408.38;8289950;28;20653;-56
2023/05/11 00:28:18;;;;;;;4.10;1.40;;;;;;;12.98;100.00;100405.56;8289600;28;20053;-56
2023/05/11 00:32:18;;;;;;;5.15;1.58;;;;;;;13.05;100.00;100406.69;8290316;28;20056;-58
2023/05/11 00:36:19;;;;;;;6.95;1.55;;;;;;;13.07;100.00;100405.50;8293615;28;20077;-58
2023/05/11 00:40:19;;;;;;;5.63;1.80;;;;;;;13.00;100.00;100398.16;8291966;28;20680;-58
2023/05/11 00:44:20;;;;;;;3.45;2.33;;;;;;;13.04;100.00;100404.97;8292840;28;20076;-58
2023/05/11 00:48:21;;;;;;;5.45;2.60;;;;;;;13.08;100.00;100390.03;8294136;28;20038;-58
2023/05/11 00:52:23;;;;;;;7.82;3.03;;;;;;;12.97;100.00;100393.00;8292098;28;20040;-58
2023/05/11 00:56:24;;;;;;;5.03;3.25;;;;;;;12.93;100.00;100387.03;8292589;28;20045;-59
2023/05/11 01:00:25;;;;;;;8.40;5.70;;;;;;;13.00;100.00;100376.44;8293436;28;20579;-59
2023/05/11 01:04:26;;;;;;;14.35;6.50;;;;;;;13.01;100.00;100367.28;8293873;28;20531;-59
2023/05/11 01:08:39;;;;;;;21.15;7.35;;;;;;;13.07;100.00;100366.66;8292083;28;20492;-59
2023/05/11 01:12:55;;;;;;;12.65;7.65;;;;;;;13.10;100.00;100371.75;8293550;28;20136;-58
2023/05/11 01:17:19;;;;;;;16.50;8.98;;;;;;;13.16;100.00;100371.13;8280324;28;20042;-59
2023/05/11 01:21:20;;;;;;;16.10;9.32;;;;;;;13.20;100.00;100383.34;8293021;28;20049;-58
2023/05/11 01:25:46;;;;;;;13.57;8.88;;;;;;;13.21;100.00;100374.22;8292646;28;20046;-58
2023/05/11 01:34:27;;;;;;;19.85;10.48;;;;;;;13.08;100.00;100390.03;8349676;27;20396;-57
2023/05/11 01:38:32;;;;;;;16.85;9.65;;;;;;;12.96;100.00;100402.19;8349239;28;20033;-57
2023/05/11 01:42:43;;;;;;;18.98;11.82;;;;;;;13.06;100.00;100402.94;8351951;28;20044;-57
2023/05/11 01:46:44;;;;;;;18.63;11.27;;;;;;;12.85;100.00;100407.84;8352237;28;20507;-57
2023/05/11 01:50:48;;;;;;;25.13;12.50;;;;;;;12.99;100.00;100418.13;8351889;28;20096;-57
2023/05/11 01:54:51;;;;;;;23.40;13.90;;;;;;;13.10;100.00;100415.19;8351559;28;20410;-57
2023/05/11 01:58:54;;;;;;;24.35;12.93;;;;;;;13.01;100.00;100411.56;8351837;28;20405;-57
2023/05/11 02:02:56;;;;;;;19.15;12.88;;;;;;;12.98;100.00;100411.00;8350487;28;20057;-57
2023/05/11 02:07:00;;;;;;;26.38;12.90;;;;;;;13.10;100.00;100426.03;8351859;28;20407;-57
2023/05/11 02:11:01;;;;;;;20.95;12.48;;;;;;;13.06;100.00;100425.53;8351286;28;20090;-56
2023/05/11 02:15:03;;;;;;;20.98;12.13;;;;;;;13.04;100.00;100418.53;8352392;28;20095;-59
2023/05/11 02:19:06;;;;;;;20.38;10.63;;;;;;;12.97;100.00;100417.44;8351460;28;20094;-59
2023/05/11 02:23:09;;;;;;;18.13;10.65;;;;;;;12.85;100.00;100426.84;8349002;28;20105;-59
2023/05/11 02:27:11;;;;;;;15.07;9.95;;;;;;;12.86;100.00;100433.94;8349023;28;20033;-57
2023/05/11 02:31:18;;;;;;;17.80;9.25;;;;;;;12.71;100.00;100435.53;8350259;28;20357;-57
2023/05/11 02:35:24;;;;;;;10.70;8.13;;;;;;;12.63;100.00;100432.75;8350881;28;20065;-57
2023/05/11 02:39:31;;;;;;;11.55;7.38;;;;;;;12.67;100.00;100434.13;8349287;28;20455;-57
2023/05/11 02:43:39;;;;;;;11.88;8.20;;;;;;;12.65;100.00;100417.16;8339682;28;20526;-57
2023/05/11 02:47:46;;;;;;;13.48;7.97;;;;;;;12.81;100.00;100425.47;8327608;28;20045;-57
2023/05/11 02:51:54;;;;;;;17.55;8.27;;;;;;;12.83;100.00;100418.00;8328857;28;20285;-58
2023/05/11 02:55:55;;;;;;;11.90;7.75;;;;;;;12.93;100.00;100418.78;8328863;28;20099;-56
2023/05/11 02:59:57;;;;;;;13.45;7.97;;;;;;;13.01;100.00;100425.13;8328413;28;20041;-57
2023/05/11 03:03:57;;;;;;;15.00;9.10;;;;;;;13.01;100.00;100413.41;8327483;28;20038;-57
2023/05/11 03:08:00;;;;;;;17.38;7.85;;;;;;;12.96;100.00;100413.03;8327928;28;20034;-56
2023/05/11 03:12:03;;;;;;;15.82;7.35;;;;;;;12.89;100.00;100411.94;8328457;28;20045;-56
2023/05/11 03:16:07;;;;;;;12.70;7.80;;;;;;;12.88;100.00;100415.66;8328604;28;20041;-56
2023/05/11 03:20:09;;;;;;;13.48;7.70;;;;;;;12.77;100.00;100411.34;8326887;28;20401;-56
2023/05/11 03:24:11;;;;;;;14.10;7.57;;;;;;;12.76;100.00;100411.50;8326783;28;20577;-56
2023/05/11 03:28:13;;;;;;;8.90;5.65;;;;;;;12.62;100.00;100414.75;8326387;28;20092;-57
2023/05/11 03:32:16;;;;;;;9.07;5.60;;;;;;;12.50;100.00;100410.59;8327469;28;20506;-56
2023/05/11 03:36:17;;;;;;;6.40;4.15;;;;;;;12.38;100.00;100415.38;8326432;28;20404;-56
2023/05/11 03:40:18;;;;;;;8.40;3.97;;;;;;;12.42;100.00;100408.66;8326682;28;20041;-57
2023/05/11 03:44:25;;;;;;;5.60;4.18;;;;;;;12.45;100.00;100412.91;8325234;28;20045;-56
2023/05/11 03:48:27;;;;;;;7.75;4.28;;;;;;;12.42;100.00;100413.22;8325675;28;20041;-56
2023/05/11 03:52:28;;;;;;;9.02;3.70;;;;;;;12.34;100.00;100411.28;8326682;28;20064;-56
2023/05/11 03:56:29;;;;;;;9.93;3.75;;;;;;;12.33;100.00;100408.72;8325597;28;20597;-57
2023/05/11 04:00:29;;;;;;;10.05;3.13;;;;;;;12.41;100.00;100419.66;8326906;28;20463;-57
2023/05/11 04:04:30;;;;;;;5.15;3.28;;;;;;;12.30;100.00;100409.03;8346911;28;20066;-57
2023/05/11 04:08:32;;;;;;;3.95;3.08;;;;;;;12.31;100.00;100417.03;8343863;28;20064;-57
2023/05/11 04:12:33;;;;;;;4.85;3.05;;;;;;;12.29;100.00;100412.75;8313501;28;20048;-57
2023/05/11 04:16:34;;;;;;;7.53;3.58;;;;;;;12.34;100.00;100415.84;8343520;28;20045;-57
2023/05/11 04:20:35;;;;;;;8.15;3.38;;;;;;;12.37;100.00;100416.41;8347350;28;20038;-57
2023/05/11 04:24:35;;;;;;;8.35;4.13;;;;;;;12.44;100.00;100422.91;8294732;28;20566;-57
2023/05/11 04:28:36;;;;;;;7.13;4.07;;;;;;;12.50;100.00;100429.59;8305039;28;20096;-57
2023/05/11 04:32:36;;;;;;;8.40;5.18;;;;;;;12.44;100.00;100438.34;8323421;28;20041;-56
2023/05/11 04:36:37;;;;;;;6.78;4.30;;;;;;;12.34;100.00;100448.38;8313002;28;20050;-57
2023/05/11 04:40:37;;;;;;;5.85;3.42;;;;;;;12.32;100.00;100442.28;8322932;28;20044;-57
2023/05/11 04:44:38;;;;;;;6.80;3.95;;;;;;;12.37;100.00;100448.06;8324365;28;20037;-57
2023/05/11 04:48:40;;;;;;;7.10;3.03;;;;;;;12.34;100.00;100448.38;8324093;28;20524;-57
2023/05/11 04:52:41;;;;;;;8.27;3.90;;;;;;;12.31;100.00;100427.00;8317620;28;20434;-57
2023/05/11 04:56:41;;;;;;;9.02;5.45;;;;;;;12.42;100.00;100443.06;8324542;28;20053;-57
2023/05/11 05:00:42;;;;;;;8.10;5.00;;;;;;;12.41;100.00;100444.06;8324827;28;20042;-56
2023/05/11 05:04:43;;;;;;;9.80;5.13;;;;;;;12.59;100.00;100459.31;8307025;28;20045;-56
2023/05/11 05:08:43;;;;;;;15.77;6.78;;;;;;;12.79;100.00;100449.16;8320262;28;20041;-57
2023/05/11 05:12:44;;;;;;;15.75;9.00;;;;;;;12.82;100.00;100455.16;8323496;28;20088;-56
2023/05/11 05:16:44;;;;;;;12.93;8.55;;;;;;;12.97;100.00;100452.72;8311616;28;20044;-56
2023/05/11 05:20:46;;;;;;;15.40;9.27;;;;;;;12.99;100.00;100459.72;8308941;28;20042;-56
2023/05/11 05:24:47;;;;;;;21.55;10.20;;;;;;;13.11;100.00;100465.72;8308267;28;20442;-57
2023/05/11 05:28:48;;;;;;;20.85;10.55;;;;;;;13.15;100.00;100461.72;8323829;28;20142;-57
2023/05/11 05:32:49;;;;;;;17.38;9.82;;;;;;;13.27;100.00;100471.31;8323224;28;20044;-57
2023/05/11 05:36:50;;;;;;;21.27;11.75;;;;;;;13.39;100.00;100476.28;8323147;28;20419;-57
2023/05/11 05:40:50;;;;;;;21.33;11.85;;;;;;;13.48;100.00;100474.50;8306681;28;20292;-57
2023/05/11 05:44:51;;;;;;;31.77;13.60;;;;;;;13.60;100.00;100474.06;8320332;28;20041;-59
2023/05/11 05:48:54;;;;;;;60.78;19.50;;;;;;;13.64;100.00;100477.31;8319164;28;20033;-59
2023/05/11 05:52:54;;;;;;;47.67;18.95;;;;;;;13.78;100.00;100479.41;8320609;28;20116;-59
2023/05/11 05:56:58;;;;;;;48.78;18.63;;;;;;;13.86;100.00;100484.91;8320363;28;20037;-59
2023/05/11 06:00:59;;;;;;;43.30;17.50;;;;;;;14.03;100.00;100480.41;8321021;28;20044;-59
2023/05/11 06:05:00;;;;;;;27.45;14.23;;;;;;;14.02;100.00;100490.41;8301803;28;20042;-59
2023/05/11 06:09:01;;;;;;;28.13;13.88;;;;;;;14.03;100.00;100485.84;8304789;28;20057;-59
2023/05/11 06:13:02;;;;;;;26.65;14.73;;;;;;;14.07;100.00;100498.94;8323505;28;20034;-59
2023/05/11 06:17:03;;;;;;;26.27;14.27;;;;;;;13.91;100.00;100498.88;8323590;28;20061;-59
2023/05/11 06:21:03;;;;;;;25.42;14.50;;;;;;;13.88;100.00;100505.47;8325551;28;20030;-59
2023/05/11 06:25:05;;;;;;;29.67;15.05;;;;;;;13.92;100.00;100502.41;8329433;28;20042;-59
2023/05/11 06:29:06;;;;;;;25.20;14.02;;;;;;;13.99;100.00;100507.03;8329000;28;20038;-59
2023/05/11 06:33:08;;;;;;;23.17;14.20;;;;;;;14.00;100.00;100497.84;8328261;28;20119;-59
2023/05/11 06:37:10;;;;;;;25.77;13.60;;;;;;;14.14;100.00;100497.25;8328695;28;20348;-59
2023/05/11 06:41:10;;;;;;;27.88;14.57;;;;;;;14.17;100.00;100510.53;8329046;28;20025;-59
2023/05/11 06:45:11;;;;;;;31.02;15.32;;;;;;;14.24;100.00;100498.00;8328746;28;20334;-59
2023/05/11 06:49:15;;;;;;;26.10;14.03;;;;;;;14.30;100.00;100494.63;8328383;28;20383;-59
2023/05/11 06:53:18;;;;;;;22.30;13.25;;;;;;;14.26;100.00;100498.69;8328825;28;20088;-59
2023/05/11 06:57:19;;;;;;;31.73;15.35;;;;;;;14.37;100.00;100495.69;8328352;28;20160;-59
2023/05/11 07:01:19;;;;;;;30.42;18.42;;;;;;;14.48;100.00;100500.81;8325326;28;20068;-59
2023/05/11 07:05:20;;;;;;;33.22;16.80;;;;;;;14.50;100.00;100501.50;8336203;28;20108;-59
2023/05/11 07:09:20;;;;;;;31.63;17.65;;;;;;;14.61;100.00;100498.44;8327314;28;20087;-59
2023/05/11 07:13:20;;;;;;;39.58;20.60;;;;;;;14.79;100.00;100510.06;8328050;28;20041;-59
2023/05/11 07:17:21;;;;;;;36.22;20.15;;;;;;;14.83;100.00;100508.72;8327324;28;20045;-59
2023/05/11 07:21:21;;;;;;;39.63;22.08;;;;;;;14.87;100.00;100514.66;8327653;28;20171;-59
2023/05/11 07:25:22;;;;;;;44.00;23.10;;;;;;;15.06;100.00;100512.47;8327729;28;20496;-59
2023/05/11 07:29:22;;;;;;;37.50;22.42;;;;;;;15.31;100.00;100500.53;8326851;28;20049;-59
2023/05/11 07:33:23;;;;;;;41.15;24.48;;;;;;;15.50;100.00;100513.84;8327135;28;20049;-59
2023/05/11 07:37:23;;;;;;;42.22;21.02;;;;;;;15.52;100.00;100511.81;8326828;28;20038;-59
2023/05/11 07:41:25;;;;;;;40.10;21.73;;;;;;;15.65;100.00;100512.13;8342155;28;20034;-59
2023/05/11 07:45:26;;;;;;;37.88;21.70;;;;;;;15.90;100.00;100506.59;8337889;28;20033;-59
2023/05/11 07:49:26;;;;;;;35.70;19.90;;;;;;;15.98;100.00;100509.31;8326701;28;20117;-59
2023/05/11 07:53:27;;;;;;;33.58;19.80;;;;;;;16.47;100.00;100514.41;8326732;28;20403;-59
2023/05/11 07:57:27;;;;;;;29.33;18.48;;;;;;;16.50;98.23;100502.31;8326198;28;20496;-59
2023/05/11 08:01:28;;;;;;;32.70;18.30;;;;;;;16.53;100.00;100510.97;8326506;28;20041;-60
2023/05/11 08:05:29;;;;;;;31.58;17.33;;;;;;;16.64;99.95;100501.53;8325967;28;20048;-59
2023/05/11 08:09:31;;;;;;;27.98;17.58;;;;;;;16.69;100.00;100501.84;8325463;28;20041;-59
2023/05/11 08:13:31;;;;;;;30.50;17.52;;;;;;;17.07;100.00;100500.88;8332073;28;20033;-57
2023/05/11 08:17:32;;;;;;;24.88;15.70;;;;;;;17.62;92.75;100500.63;8324904;28;20049;-57
2023/05/11 08:21:32;;;;;;;30.25;15.30;;;;;;;17.96;91.63;100499.03;8325293;28;20384;-58
2023/05/11 08:25:33;;;;;;;18.57;13.63;;;;;;;18.40;90.13;100507.25;8325363;28;20041;-57
2023/05/11 08:29:34;;;;;;;20.30;12.02;;;;;;;17.95;86.37;100508.28;8323283;28;20701;-57
2023/05/11 08:33:34;;;;;;;26.92;14.13;;;;;;;17.75;89.21;100507.13;8325276;28;20110;-57
2023/05/11 08:37:35;;;;;;;27.33;15.65;;;;;;;17.39;92.90;100508.84;8324311;28;20048;-57
2023/05/11 08:41:35;;;;;;;31.92;16.17;;;;;;;16.95;96.68;100516.00;8324955;28;20045;-57
2023/05/11 08:45:37;;;;;;;38.83;18.42;;;;;;;16.77;95.79;100515.47;8325065;28;20049;-57
2023/05/11 08:49:37;;;;;;;34.55;16.88;;;;;;;16.61;97.28;100521.00;8324346;28;20518;-57
2023/05/11 08:53:38;;;;;;;34.08;17.60;;;;;;;16.69;96.58;100512.78;8324685;28;20454;-57
2023/05/11 08:57:40;;;;;;;39.22;18.85;;;;;;;16.78;99.44;100519.88;8324169;28;20076;-57
2023/05/11 09:01:40;;;;;;;43.45;21.10;;;;;;;16.61;100.00;100521.00;8324380;28;20120;-56
2023/05/11 09:05:44;;;;;;;46.30;24.35;;;;;;;16.18;100.00;100518.78;8324523;28;20124;-56
2023/05/11 09:09:46;;;;;;;54.10;25.33;;;;;;;16.13;100.00;100518.47;8323706;28;20038;-60
2023/05/11 09:13:47;;;;;;;51.00;25.17;;;;;;;15.99;100.00;100525.50;8324396;28;20045;-60
2023/05/11 09:17:47;;;;;;;37.28;19.80;;;;;;;15.98;100.00;100512.06;8323625;28;20049;-59
2023/05/11 09:21:48;;;;;;;38.60;21.33;;;;;;;16.05;100.00;100515.78;8323497;28;20370;-60
2023/05/11 09:25:48;;;;;;;47.03;23.02;;;;;;;16.09;100.00;100522.56;8324150;28;20531;-60
2023/05/11 09:29:51;;;;;;;46.88;22.35;;;;;;;16.08;100.00;100526.31;8323806;28;20051;-60
2023/05/11 09:34:07;;;;;;;47.25;21.90;;;;;;;16.31;100.00;100521.81;8324040;28;20040;-60
2023/05/11 09:38:11;;;;;;;43.40;22.25;;;;;;;16.37;100.00;100523.81;8323278;28;20124;-60
2023/05/11 09:42:14;;;;;;;41.70;22.30;;;;;;;16.31;99.29;100524.56;8323639;28;20064;-60
2023/05/11 09:46:20;;;;;;;33.92;21.20;;;;;;;16.53;100.00;100523.78;8323568;28;20049;-60
2023/05/11 09:50:21;;;;;;;43.45;21.42;;;;;;;16.38;100.00;100517.34;8323944;28;20113;-60
2023/05/11 09:54:21;;;;;;;44.33;22.33;;;;;;;16.63;99.39;100525.28;8326885;28;20041;-60
2023/05/11 09:58:21;;;;;;;36.53;21.67;;;;;;;16.79;100.00;100525.16;8329474;28;20037;-60
2023/05/11 10:02:28;;;;;;;33.50;20.20;;;;;;;16.58;95.25;100521.34;8329857;28;20038;-60
2023/05/11 10:06:49;;;;;;;35.70;20.58;;;;;;;16.74;95.80;100524.00;8300678;28;20040;-59
2023/05/11 10:10:50;;;;;;;33.85;20.70;;;;;;;16.63;97.08;100519.81;8296650;28;20508;-60
2023/05/11 10:14:54;;;;;;;42.08;20.75;;;;;;;16.71;99.12;100521.66;8296967;28;20046;-59
2023/05/11 10:18:55;;;;;;;41.15;21.05;;;;;;;16.78;96.27;100517.16;8296068;28;20061;-60
2023/05/11 10:22:56;;;;;;;32.60;18.67;;;;;;;16.76;93.52;100511.00;8328736;28;20048;-58
2023/05/11 10:26:57;;;;;;;37.70;20.48;;;;;;;16.89;94.82;100503.94;8329205;28;20124;-59
2023/05/11 10:30:58;;;;;;;39.70;19.88;;;;;;;16.77;93.15;100501.81;8329278;28;20091;-60
2023/05/11 10:34:59;;;;;;;36.33;20.30;;;;;;;17.18;98.26;100508.66;8328989;28;20038;-59
2023/05/11 10:38:59;;;;;;;34.30;18.42;;;;;;;17.20;94.53;100512.06;8328398;28;20047;-59
2023/05/11 10:43:30;;;;;;;34.20;18.73;;;;;;;17.07;93.46;100507.22;8329079;28;20045;-57
2023/05/11 10:48:10;;;;;;;32.47;17.50;;;;;;;16.83;91.02;100510.13;8328173;28;20045;-57
2023/05/11 10:57:12;;;;;;;31.42;17.55;;;;;;;16.92;92.65;100508.16;8348948;27;20127;-56
2023/05/11 11:01:38;;;;;;;32.25;18.48;;;;;;;16.93;92.92;100515.34;8350722;28;20574;-55
2023/05/11 11:05:39;;;;;;;34.10;17.10;;;;;;;16.83;91.91;100514.72;8351747;28;20541;-56
2023/05/11 11:09:59;;;;;;;34.65;18.13;;;;;;;17.00;92.95;100506.25;8351847;28;20092;-56
2023/05/11 11:14:02;;;;;;;37.13;16.52;;;;;;;17.51;92.28;100504.66;8346751;28;20190;-56
2023/05/11 11:18:26;;;;;;;28.88;16.20;;;;;;;17.37;91.41;100508.16;8346038;28;20496;-56
2023/05/11 11:22:37;;;;;;;;;;;;;;;17.35;90.53;100502.00;8331465;28;20037;-56
2023/05/11 11:26:47;;;;;;;34.35;16.40;;;;;;;17.67;90.92;100512.69;8345659;28;20417;-57
2023/05/11 11:31:24;;;;;;;39.08;16.98;;;;;;;17.93;90.39;100504.03;8349146;28;20045;-56
2023/05/11 11:39:59;;;;;;;34.85;15.73;;;;;;;18.37;88.05;100500.28;8346736;27;20467;-59
2023/05/11 11:43:59;;;;;;;27.88;14.75;;;;;;;18.56;85.57;100496.94;8336696;28;20261;-59
2023/05/11 11:48:20;;;;;;;27.88;14.85;;;;;;;18.72;86.00;100502.16;8317141;28;20048;-58
2023/05/11 11:52:32;;;;;;;33.72;16.55;;;;;;;18.62;84.78;100496.16;8309832;28;20039;-58
2023/05/11 12:00:46;;;;;;;41.40;18.27;;;;;;;18.81;86.80;100501.00;8370496;28;20435;-58
2023/05/11 12:04:55;;;;;;;36.65;18.60;;;;;;;18.60;87.08;100503.72;8348212;28;20400;-57
2023/05/11 12:08:55;;;;;;;35.25;17.05;;;;;;;18.86;87.02;100509.50;8346539;28;20506;-58
2023/05/11 12:12:57;;;;;;;32.55;15.63;;;;;;;18.92;84.37;100503.25;8343535;28;20425;-57
2023/05/11 12:17:00;;;;;;;30.52;16.20;;;;;;;19.22;82.32;100499.31;8346778;28;20048;-57
2023/05/11 12:21:01;;;;;;;27.70;14.55;;;;;;;19.35;84.61;100499.50;8347803;28;20043;-57
2023/05/11 12:25:06;;;;;;;28.77;15.25;;;;;;;19.07;79.45;100484.88;8347994;28;20128;-57
2023/05/11 12:29:10;;;;;;;30.17;15.05;;;;;;;19.66;82.08;100490.88;8347027;28;20033;-57
2023/05/11 12:33:13;;;;;;;26.67;13.97;;;;;;;19.49;80.15;100489.50;8346924;28;20049;-57
2023/05/11 12:37:14;;;;;;;33.20;16.63;;;;;;;19.23;79.60;100479.09;8345922;28;20435;-57
2023/05/11 12:41:21;;;;;;;26.98;15.40;;;;;;;19.15;77.61;100481.97;8346777;28;20283;-56
2023/05/11 12:45:23;;;;;;;26.00;14.13;;;;;;;19.72;79.59;100472.75;8347543;28;20037;-57
2023/05/11 12:49:25;;;;;;;28.77;14.55;;;;;;;19.86;79.64;100469.06;8344239;28;20098;-57
2023/05/11 12:53:26;;;;;;;27.98;13.93;;;;;;;19.71;79.05;100471.06;8344592;28;20034;-57
2023/05/11 12:57:29;;;;;;;25.73;14.18;;;;;;;19.45;77.31;100467.09;8344998;28;20047;-57
2023/05/11 13:01:30;;;;;;;27.17;15.00;;;;;;;19.82;80.32;100454.88;8344948;28;20092;-57
2023/05/11 13:05:30;;;;;;;34.15;16.60;;;;;;;19.57;80.30;100441.88;8344589;28;20095;-57
2023/05/11 13:09:31;;;;;;;29.30;13.85;;;;;;;19.43;76.98;100463.69;8336572;28;20037;-57
2023/05/11 13:13:31;;;;;;;27.15;14.98;;;;;;;19.38;80.82;100455.22;8323247;28;20044;-57
2023/05/11 13:17:35;;;;;;;33.38;15.75;;;;;;;18.81;79.02;100462.66;8322923;28;20065;-56
2023/05/11 13:21:36;;;;;;;29.43;15.30;;;;;;;18.75;80.67;100460.69;8291529;28;20143;-57
2023/05/11 13:25:52;;;;;;;34.63;15.52;;;;;;;19.05;81.94;100454.06;8290425;28;20042;-57
2023/05/11 13:29:53;;;;;;;28.38;15.35;;;;;;;18.97;81.19;100456.91;8290659;28;20033;-56
2023/05/11 13:33:53;;;;;;;30.52;15.55;;;;;;;19.23;81.11;100446.22;8289813;28;20038;-57
2023/05/11 13:37:54;;;;;;;29.00;14.43;;;;;;;18.89;77.53;100443.38;8290876;28;20076;-56
2023/05/11 13:41:54;;;;;;;25.27;13.85;;;;;;;19.06;79.53;100450.25;8290838;28;20099;-56
2023/05/11 13:45:55;;;;;;;25.45;13.25;;;;;;;19.38;80.77;100438.78;8292217;28;20037;-57
2023/05/11 13:49:56;;;;;;;25.83;13.90;;;;;;;19.31;78.62;100429.63;8321329;28;20033;-59
2023/05/11 13:53:58;;;;;;;24.85;14.80;;;;;;;19.43;79.32;100436.25;8333718;28;20055;-59
2023/05/11 13:57:58;;;;;;;23.10;13.80;;;;;;;19.64;77.55;100431.78;8331511;28;20417;-59
2023/05/11 14:01:58;;;;;;;23.58;12.65;;;;;;;19.59;76.38;100426.03;8297703;28;20127;-56
2023/05/11 14:05:59;;;;;;;25.00;12.93;;;;;;;19.69;77.65;100418.28;8288834;28;20045;-56
2023/05/11 14:10:00;;;;;;;21.50;11.95;;;;;;;19.48;77.96;100426.63;8289102;28;20068;-56
2023/05/11 14:14:09;;;;;;;21.02;12.20;;;;;;;19.35;71.73;100428.22;8294618;28;20088;-56
2023/05/11 14:18:10;;;;;;;20.67;12.10;;;;;;;19.64;77.11;100423.56;8289059;28;20133;-56
2023/05/11 14:22:10;;;;;;;19.60;11.88;;;;;;;19.49;76.28;100424.50;8285592;28;20046;-56
2023/05/11 14:26:11;;;;;;;19.50;12.00;;;;;;;19.29;75.25;100423.50;8287771;28;20038;-56
2023/05/11 14:30:12;;;;;;;22.15;12.25;;;;;;;19.30;79.26;100425.19;8288620;28;20038;-56
2023/05/11 14:34:12;;;;;;;25.92;12.98;;;;;;;19.00;77.90;100423.63;8287858;28;20231;-56
2023/05/11 14:38:13;;;;;;;22.73;12.32;;;;;;;19.08;77.68;100426.25;8289851;28;20098;-56
2023/05/11 14:42:13;;;;;;;22.65;12.60;;;;;;;18.85;76.74;100416.56;8304014;28;20412;-56
2023/05/11 14:46:15;;;;;;;22.92;12.15;;;;;;;18.83;77.76;100410.41;8292866;28;20455;-56
2023/05/11 14:50:15;;;;;;;22.35;12.00;;;;;;;19.08;79.87;100409.81;8288397;28;20042;-56
2023/05/11 14:54:16;;;;;;;23.50;11.93;;;;;;;19.12;79.56;100405.63;8286727;28;20038;-58
2023/05/11 14:58:16;;;;;;;25.50;11.85;;;;;;;19.27;80.27;100409.16;8286880;28;20069;-57
2023/05/11 15:02:17;;;;;;;24.23;12.30;;;;;;;19.24;80.31;100408.66;8279137;28;20142;-57
2023/05/11 15:06:21;;;;;;;22.73;11.38;;;;;;;18.79;76.58;100404.47;8279354;28;20038;-56
2023/05/11 15:10:21;;;;;;;25.52;11.23;;;;;;;18.62;76.40;100392.09;8285835;28;20037;-56
2023/05/11 15:14:22;;;;;;;26.83;13.80;;;;;;;18.59;78.95;100403.44;8286085;28;20092;-57
2023/05/11 15:18:22;;;;;;;21.00;10.60;;;;;;;18.98;79.63;100406.56;8282703;28;20046;-57
2023/05/11 15:22:22;;;;;;;20.23;9.77;;;;;;;18.91;79.14;100407.56;8282186;28;20477;-57
2023/05/11 15:26:23;;;;;;;26.27;11.85;;;;;;;18.60;78.03;100410.59;8283320;28;20386;-56
2023/05/11 15:30:23;;;;;;;25.35;11.40;;;;;;;18.49;78.79;100413.88;8281863;28;20037;-56
2023/05/11 15:34:24;;;;;;;21.65;10.63;;;;;;;18.39;79.87;100418.78;8284878;28;20528;-56
2023/05/11 15:38:25;;;;;;;20.08;10.82;;;;;;;18.43;79.14;100420.13;8284583;28;20053;-57
2023/05/11 15:42:25;;;;;;;25.88;12.57;;;;;;;18.35;78.92;100417.44;8285847;28;20112;-58
2023/05/11 15:46:25;;;;;;;23.98;10.80;;;;;;;18.31;79.21;100416.16;8285862;28;20508;-57
2023/05/11 15:50:26;;;;;;;18.92;10.38;;;;;;;18.36;78.42;100418.31;8264304;28;20049;-57
2023/05/11 15:54:26;;;;;;;21.98;11.57;;;;;;;18.41;79.71;100426.81;8276195;28;20038;-58
2023/05/11 15:58:28;;;;;;;18.00;11.85;;;;;;;18.32;79.47;100426.06;8275993;28;20046;-55
2023/05/11 16:02:28;;;;;;;22.48;12.43;;;;;;;18.26;80.25;100424.09;8283505;28;20101;-56
2023/05/11 16:06:29;;;;;;;24.40;12.02;;;;;;;18.32;81.23;100423.31;8283308;28;20038;-57
2023/05/11 16:10:29;;;;;;;23.85;10.88;;;;;;;18.24;81.84;100426.16;8281810;28;20062;-57
2023/05/11 16:14:30;;;;;;;26.67;11.98;;;;;;;18.17;81.81;100422.50;8282973;28;20041;-57
2023/05/11 16:18:30;;;;;;;22.85;12.68;;;;;;;18.14;81.79;100417.41;8295848;28;20045;-57
2023/05/11 16:22:31;;;;;;;22.83;12.73;;;;;;;18.06;81.69;100412.06;8288346;28;20046;-57
2023/05/11 16:26:31;;;;;;;27.70;12.82;;;;;;;18.14;83.29;100416.56;8293118;28;20057;-58
2023/05/11 16:30:31;;;;;;;22.40;12.00;;;;;;;18.05;82.44;100412.25;8285875;28;20034;-58
2023/05/11 16:34:33;;;;;;;25.00;13.45;;;;;;;18.08;82.16;100415.44;8283366;28;20045;-62
2023/05/11 16:38:34;;;;;;;26.13;14.02;;;;;;;18.05;82.51;100413.06;8289252;28;20117;-58
2023/05/11 16:42:35;;;;;;;23.08;12.93;;;;;;;18.04;83.50;100414.13;8318839;28;20033;-58
2023/05/11 16:46:35;;;;;;;26.73;12.48;;;;;;;17.89;83.38;100399.63;8301320;28;20042;-58
2023/05/11 16:50:36;;;;;;;23.85;13.82;;;;;;;17.81;85.59;100402.44;8292881;28;20050;-58
2023/05/11 16:54:36;;;;;;;23.83;13.63;;;;;;;17.78;87.47;100405.56;8292065;28;20037;-57
2023/05/11 16:58:37;;;;;;;26.90;14.95;;;;;;;17.50;89.03;100416.31;8292748;28;20066;-58
2023/05/11 17:02:37;;;;;;;25.30;14.75;;;;;;;17.17;91.82;100416.81;8292769;28;20034;-58
2023/05/11 17:06:38;;;;;;;29.70;15.77;;;;;;;17.01;93.27;100419.66;8292202;28;20069;-57
2023/05/11 17:10:39;;;;;;;25.27;15.18;;;;;;;16.70;97.90;100424.38;8292188;28;20389;-59
2023/05/11 17:14:39;;;;;;;34.42;18.55;;;;;;;16.26;100.00;100424.13;8294240;28;20121;-58
2023/05/11 17:18:40;;;;;;;31.25;18.08;;;;;;;15.97;100.00;100433.97;8297665;28;20257;-59
2023/05/11 17:22:40;;;;;;;39.50;19.45;;;;;;;15.83;100.00;100432.88;8288188;28;20042;-59
2023/05/11 17:26:41;;;;;;;41.85;21.33;;;;;;;15.74;100.00;100440.19;8290390;28;20041;-59
2023/05/11 17:30:42;;;;;;;53.78;23.67;;;;;;;15.63;100.00;100437.88;8292128;28;20045;-59
2023/05/11 17:34:43;;;;;;;56.60;26.30;;;;;;;15.68;100.00;100440.91;8290737;28;20050;-60
2023/05/11 17:38:43;;;;;;;59.72;26.80;;;;;;;15.64;100.00;100430.53;8291147;28;20056;-60
2023/05/11 17:42:43;;;;;;;55.10;27.00;;;;;;;15.59;100.00;100436.50;8301111;28;20488;-61
2023/05/11 17:46:44;;;;;;;51.03;25.85;;;;;;;15.49;100.00;100435.00;8302615;28;20037;-61
2023/05/11 17:50:44;;;;;;;47.25;24.05;;;;;;;15.50;100.00;100442.16;8291030;28;20065;-61
2023/05/11 17:54:45;;;;;;;59.20;26.88;;;;;;;15.37;100.00;100437.22;8306569;28;20536;-60
2023/05/11 17:58:46;;;;;;;61.45;27.27;;;;;;;15.43;100.00;100452.03;8290379;28;20050;-60
2023/05/11 18:02:47;;;;;;;65.22;30.58;;;;;;;15.45;100.00;100442.69;8291172;28;20034;-60
2023/05/11 18:06:48;;;;;;;61.38;30.45;;;;;;;15.48;100.00;100445.06;8290919;28;20041;-60
2023/05/11 18:10:48;;;;;;;65.00;32.08;;;;;;;15.37;100.00;100441.84;8294826;28;20520;-60
2023/05/11 18:14:49;;;;;;;64.45;30.00;;;;;;;15.36;100.00;100440.09;8301703;28;20042;-61
2023/05/11 18:18:49;;;;;;;58.15;29.50;;;;;;;15.35;100.00;100444.72;8296956;28;20083;-61
2023/05/11 18:22:50;;;;;;;70.68;32.58;;;;;;;15.38;100.00;100449.84;8294428;28;20029;-61
2023/05/11 18:26:50;;;;;;;67.38;30.40;;;;;;;15.31;100.00;100448.78;8302380;28;20444;-62
2023/05/11 18:30:51;;;;;;;70.90;32.55;;;;;;;15.30;100.00;100449.81;8297163;28;20548;-61
2023/05/11 18:34:52;;;;;;;68.47;31.73;;;;;;;15.30;100.00;100458.00;8288134;28;20497;-61
2023/05/11 18:38:52;;;;;;;64.88;31.92;;;;;;;15.33;100.00;100459.50;8300305;28;20419;-61